createdAt,value
2024-02-21T04:56:45.205Z,69068.47
2024-02-21T04:59:48.914Z,69079.31
2024-02-21T05:02:51.644Z,69065.00
2024-02-21T05:05:54.755Z,69070.88
2024-02-21T05:08:58.971Z,69063.28
2024-02-21T05:12:02.021Z,69071.47
2024-02-21T05:15:05.136Z,69077.72
2024-02-21T05:18:08.504Z,69073.19
2024-02-21T05:21:11.264Z,69061.63
2024-02-21T05:24:14.222Z,69057.22
2024-02-21T05:27:16.935Z,69061.28
2024-02-21T05:30:20.005Z,69055.84
2024-02-21T05:33:22.980Z,69045.94
2024-02-21T05:36:26.218Z,69048.56
2024-02-21T05:39:30.520Z,69056.34
2024-02-21T05:42:33.599Z,69056.09
2024-02-21T05:45:36.563Z,69054.34
2024-02-21T05:48:40.228Z,69063.03
2024-02-21T05:51:43.031Z,69056.75
2024-02-21T05:54:48.126Z,69052.63
2024-02-21T05:57:51.152Z,69059.56
2024-02-21T06:00:55.264Z,69066.00
2024-02-21T06:03:58.585Z,69068.00
2024-02-21T06:07:01.829Z,69068.56
2024-02-21T06:10:05.417Z,69070.88
2024-02-21T06:13:08.315Z,69073.44
2024-02-21T06:16:11.372Z,69072.84
2024-02-21T06:19:14.498Z,69073.75
2024-02-21T06:22:20.543Z,69081.88
2024-02-21T06:25:23.444Z,69085.00
2024-02-21T06:28:26.556Z,69092.78
2024-02-21T06:31:30.068Z,69109.63
2024-02-21T06:34:34.964Z,69127.22
2024-02-21T06:37:39.745Z,69138.81
2024-02-21T06:40:50.201Z,69151.19
2024-02-21T06:43:53.059Z,69171.81
2024-02-21T06:46:56.417Z,69190.94
2024-02-21T06:49:59.170Z,69215.81
2024-02-21T06:53:02.246Z,69235.75
2024-02-21T06:56:05.291Z,69264.22
2024-02-21T06:59:08.354Z,69283.69
2024-02-21T07:02:11.187Z,69296.09
2024-02-21T07:05:14.157Z,69322.16
2024-02-21T07:08:16.986Z,69346.50
2024-02-21T07:11:20.132Z,69360.09
2024-02-21T07:14:23.113Z,69372.25
2024-02-21T07:17:26.231Z,69389.06
2024-02-21T07:20:29.220Z,69396.94
2024-02-21T07:23:32.222Z,69406.13
2024-02-21T07:26:35.067Z,69405.88
2024-02-21T07:29:38.137Z,69413.44
2024-02-21T07:32:40.921Z,69423.28
2024-02-21T07:35:46.171Z,69407.06
2024-02-21T07:38:48.856Z,69460.44
2024-02-21T07:41:54.786Z,69569.31
2024-02-21T07:44:58.004Z,69621.22
2024-02-21T07:48:01.075Z,69593.94
2024-02-21T07:51:04.098Z,69549.00
2024-02-21T07:54:08.081Z,69536.09
2024-02-21T07:57:12.099Z,69520.19
2024-02-21T08:00:21.045Z,69530.31
2024-02-21T08:03:24.440Z,69570.38
2024-02-21T08:06:27.207Z,69628.56
2024-02-21T08:09:30.193Z,69622.97
2024-02-21T08:12:33.888Z,69625.66
2024-02-21T08:15:36.943Z,69604.38
2024-02-21T08:18:40.150Z,69575.34
2024-02-21T08:21:43.174Z,69600.66
2024-02-21T08:24:45.970Z,69604.50
2024-02-21T08:27:48.897Z,69604.16
2024-02-21T08:30:54.172Z,69618.06
2024-02-21T08:33:57.645Z,69597.41
2024-02-21T08:37:02.956Z,69607.75
2024-02-21T08:40:10.043Z,69611.34
2024-02-21T08:43:13.132Z,69613.44
2024-02-21T08:46:16.183Z,69597.75
2024-02-21T08:49:18.922Z,69602.28
2024-02-21T08:52:21.985Z,69628.78
2024-02-21T08:55:25.520Z,69637.84
2024-02-21T08:58:49.125Z,69636.91
2024-02-21T09:01:53.717Z,69641.69
2024-02-21T09:04:57.050Z,69657.81
2024-02-21T09:07:59.969Z,69681.66
2024-02-21T09:11:03.223Z,69703.19
2024-02-21T09:14:06.060Z,69704.09
2024-02-21T09:17:09.127Z,69712.81
2024-02-21T09:20:13.399Z,69706.44
2024-02-21T09:23:16.793Z,69691.34
2024-02-21T09:26:19.483Z,69704.09
2024-02-21T09:29:25.881Z,69707.94
2024-02-21T09:32:31.196Z,69711.44
2024-02-21T09:35:34.962Z,69691.91
2024-02-21T09:38:37.878Z,69684.34
2024-02-21T09:41:46.776Z,69705.50
2024-02-21T09:44:52.016Z,69714.56
2024-02-21T09:48:10.256Z,69710.84
2024-02-21T09:51:14.380Z,69731.66
2024-02-21T09:54:19.673Z,69730.16
2024-02-21T09:57:24.186Z,69735.50
2024-02-21T10:00:27.266Z,69730.50
2024-02-21T10:03:30.493Z,69728.16
2024-02-21T10:06:34.061Z,69746.78
2024-02-21T10:09:37.065Z,69775.97
2024-02-21T10:12:52.782Z,69807.84
2024-02-21T10:16:09.491Z,69854.97
2024-02-21T10:19:21.684Z,69867.78
2024-02-21T10:22:26.721Z,69916.78
2024-02-21T10:25:29.331Z,69928.91
2024-02-21T10:28:32.585Z,70002.63
2024-02-21T10:31:35.304Z,70006.69
2024-02-21T10:34:39.717Z,70005.22
2024-02-21T10:37:42.420Z,70015.69
2024-02-21T10:40:47.412Z,69962.44
2024-02-21T10:43:56.116Z,69927.16
2024-02-21T10:46:59.634Z,69938.34
2024-02-21T10:50:06.208Z,69895.16
2024-02-21T10:53:47.450Z,69897.47
2024-02-21T10:56:51.672Z,69871.88
2024-02-21T10:59:57.322Z,69890.81
2024-02-21T11:03:01.269Z,69896.06
2024-02-21T11:06:06.353Z,69912.13
2024-02-21T11:09:12.700Z,69901.53
2024-02-21T11:12:21.755Z,69897.69
2024-02-21T11:15:28.584Z,69939.88
2024-02-21T11:18:31.666Z,70000.66
2024-02-21T11:21:37.047Z,70015.69
2024-02-21T11:24:39.918Z,70004.97
2024-02-21T11:27:48.390Z,69961.06
2024-02-21T11:30:52.447Z,69909.81
2024-02-21T11:33:55.489Z,69875.13
2024-02-21T11:36:58.423Z,69884.66
2024-02-21T11:40:01.779Z,69959.28
2024-02-21T11:43:05.372Z,70089.69
2024-02-21T11:46:08.196Z,70112.22
2024-02-21T11:49:11.529Z,70199.47
2024-02-21T11:52:16.821Z,70294.84
2024-02-21T11:55:20.065Z,70360.81
2024-02-21T11:58:22.844Z,70483.28
2024-02-21T12:01:26.080Z,70385.13
2024-02-21T12:04:29.899Z,70243.22
2024-02-21T12:07:33.163Z,70133.53
2024-02-21T12:10:37.389Z,70041.69
2024-02-21T12:13:40.088Z,69993.06
2024-02-21T12:16:43.351Z,69988.66
2024-02-21T12:19:46.444Z,69979.91
2024-02-21T12:22:51.505Z,69965.69
2024-02-21T12:25:57.363Z,69936.22
2024-02-21T12:29:00.467Z,69939.16
2024-02-21T12:32:05.366Z,69896.53
2024-02-21T12:35:08.928Z,69874.53
2024-02-21T12:38:12.675Z,69860.31
2024-02-21T12:41:16.822Z,69848.34
2024-02-21T12:44:19.722Z,69859.97
2024-02-21T12:47:24.874Z,69866.63
2024-02-21T12:50:27.605Z,69882.69
2024-02-21T12:53:33.647Z,69882.91
2024-02-21T12:56:37.164Z,69883.25
2024-02-21T12:59:40.036Z,69882.69
2024-02-21T13:02:43.823Z,69902.25
2024-02-21T13:05:46.962Z,69921.69
2024-02-21T13:08:49.639Z,69914.09
2024-02-21T13:11:52.920Z,69904.22
2024-02-21T13:14:55.920Z,69904.00
2024-02-21T13:17:59.862Z,69899.91
2024-02-21T13:21:02.855Z,69896.88
2024-02-21T13:24:05.974Z,69886.75
2024-02-21T13:27:08.604Z,69869.63
2024-02-21T13:30:12.213Z,69869.88
2024-02-21T13:33:15.174Z,69876.28
2024-02-21T13:36:18.242Z,69883.25
2024-02-21T13:39:20.882Z,69896.31
2024-02-21T13:42:25.017Z,69902.94
2024-02-21T13:45:27.999Z,69942.28
2024-02-21T13:48:31.461Z,70010.22
2024-02-21T13:51:37.251Z,70066.72
2024-02-21T13:54:40.223Z,70071.19
2024-02-21T13:57:42.920Z,69997.38
2024-02-21T14:00:46.081Z,69976.19
2024-02-21T14:03:49.110Z,69987.25
2024-02-21T14:06:52.161Z,69976.19
2024-02-21T14:09:55.561Z,69977.22
2024-02-21T14:12:58.761Z,69980.13
2024-02-21T14:16:01.904Z,69991.00
2024-02-21T14:19:04.720Z,69995.63
2024-02-21T14:22:07.775Z,70011.97
2024-02-21T14:25:10.678Z,70012.91
2024-02-21T14:28:13.602Z,70005.31
2024-02-21T14:31:16.358Z,70008.47
2024-02-21T14:34:20.697Z,69991.56
2024-02-21T14:37:23.458Z,69960.69
2024-02-21T14:40:26.701Z,69924.38
2024-02-21T14:43:30.390Z,69897.22
2024-02-21T14:46:34.070Z,69873.59
2024-02-21T14:49:37.248Z,69884.06
2024-02-21T14:52:40.681Z,69864.28
2024-02-21T14:55:43.612Z,69885.03
2024-02-21T14:58:49.954Z,69890.47
2024-02-21T15:01:53.918Z,69901.31
2024-02-21T15:04:57.406Z,69897.22
2024-02-21T15:08:00.534Z,69884.78
2024-02-21T15:11:04.692Z,69878.84
2024-02-21T15:14:07.889Z,69877.09
2024-02-21T15:17:13.145Z,69876.28
2024-02-21T15:20:16.237Z,69866.63
2024-02-21T15:23:21.127Z,69873.13
2024-02-21T15:26:24.065Z,69870.81
2024-02-21T15:29:26.947Z,69870.22
2024-02-21T15:32:31.341Z,69866.84
2024-02-21T15:35:35.250Z,69846.84
2024-02-21T15:38:38.216Z,69842.50
2024-02-21T15:41:41.476Z,69822.72
2024-02-21T15:44:44.131Z,69811.09
2024-02-21T15:47:47.212Z,69798.31
2024-02-21T15:50:50.210Z,69781.44
2024-02-21T15:53:53.558Z,69766.88
2024-02-21T15:56:57.394Z,69756.09
2024-02-21T16:00:00.667Z,69751.41
2024-02-21T16:03:04.610Z,69748.88
2024-02-21T16:06:08.884Z,69758.53
2024-02-21T16:09:11.894Z,69746.78
2024-02-21T16:12:15.776Z,69741.66
2024-02-21T16:15:18.757Z,69732.25
2024-02-21T16:18:23.635Z,69711.88
2024-02-21T16:21:28.396Z,69699.13
2024-02-21T16:24:32.079Z,69692.47
2024-02-21T16:27:35.433Z,69688.53
2024-02-21T16:30:38.621Z,69682.84
2024-02-21T16:33:41.777Z,69678.78
2024-02-21T16:36:45.501Z,69675.06
2024-02-21T16:39:48.316Z,69668.16
2024-02-21T16:42:51.330Z,69650.84
2024-02-21T16:45:54.443Z,69643.06
2024-02-21T16:48:57.365Z,69655.84
2024-02-21T16:52:00.065Z,69646.78
2024-02-21T16:55:03.346Z,69655.63
2024-02-21T16:58:06.727Z,69652.38
